sensor_id;sensor_type;location;lat;lon;timestamp;P1;durP1;ratioP1;P2;durP2;ratioP2
815;SDS011;25928;51.062;13.752;2022-09-09T00:04:29;1.80;;;1.70;;
815;SDS011;25928;51.062;13.752;2022-09-09T00:10:09;2.63;;;1.63;;
815;SDS011;25928;51.062;13.752;2022-09-09T00:12:47;2.93;;;2.50;;
815;SDS011;25928;51.062;13.752;2022-09-09T00:18:15;2.17;;;2.07;;
815;SDS011;25928;51.062;13.752;2022-09-09T00:21:07;2.20;;;1.87;;
815;SDS011;25928;51.062;13.752;2022-09-09T00:23:38;6.47;;;1.90;;
815;SDS011;25928;51.062;13.752;2022-09-09T00:29:05;2.10;;;1.90;;
815;SDS011;25928;51.062;13.752;2022-09-09T00:31:45;2.60;;;1.40;;
815;SDS011;25928;51.062;13.752;2022-09-09T00:36:42;4.43;;;1.70;;
815;SDS011;25928;51.062;13.752;2022-09-09T00:39:25;3.00;;;1.63;;
815;SDS011;25928;51.062;13.752;2022-09-09T00:47:39;2.57;;;1.80;;
815;SDS011;25928;51.062;13.752;2022-09-09T00:56:22;2.63;;;1.47;;
815;SDS011;25928;51.062;13.752;2022-09-09T01:02:13;2.27;;;1.47;;
815;SDS011;25928;51.062;13.752;2022-09-09T01:04:50;2.07;;;1.63;;
815;SDS011;25928;51.062;13.752;2022-09-09T01:07:18;4.30;;;1.97;;
815;SDS011;25928;51.062;13.752;2022-09-09T01:12:23;2.83;;;1.73;;
815;SDS011;25928;51.062;13.752;2022-09-09T01:14:54;2.27;;;1.93;;
815;SDS011;25928;51.062;13.752;2022-09-09T01:17:32;1.80;;;1.70;;
815;SDS011;25928;51.062;13.752;2022-09-09T01:23:02;2.47;;;1.73;;
815;SDS011;25928;51.062;13.752;2022-09-09T01:28:10;4.37;;;1.70;;
815;SDS011;25928;51.062;13.752;2022-09-09T01:30:50;2.53;;;1.60;;
815;SDS011;25928;51.062;13.752;2022-09-09T01:33:16;4.20;;;2.00;;
815;SDS011;25928;51.062;13.752;2022-09-09T01:35:48;1.90;;;1.50;;
815;SDS011;25928;51.062;13.752;2022-09-09T01:38:21;2.50;;;1.47;;
815;SDS011;25928;51.062;13.752;2022-09-09T01:40:48;2.10;;;1.87;;
815;SDS011;25928;51.062;13.752;2022-09-09T01:43:17;1.83;;;1.60;;
815;SDS011;25928;51.062;13.752;2022-09-09T01:45:45;1.63;;;1.33;;
815;SDS011;25928;51.062;13.752;2022-09-09T01:48:12;1.90;;;1.60;;
815;SDS011;25928;51.062;13.752;2022-09-09T01:50:38;3.00;;;2.00;;
815;SDS011;25928;51.062;13.752;2022-09-09T01:53:04;2.63;;;1.60;;
815;SDS011;25928;51.062;13.752;2022-09-09T01:55:31;3.20;;;1.90;;
815;SDS011;25928;51.062;13.752;2022-09-09T02:03:54;4.20;;;1.67;;
815;SDS011;25928;51.062;13.752;2022-09-09T02:08:52;2.70;;;1.43;;
815;SDS011;25928;51.062;13.752;2022-09-09T02:11:25;1.73;;;1.57;;
815;SDS011;25928;51.062;13.752;2022-09-09T02:14:10;2.30;;;2.00;;
815;SDS011;25928;51.062;13.752;2022-09-09T02:16:42;2.43;;;1.80;;
815;SDS011;25928;51.062;13.752;2022-09-09T02:19:23;2.93;;;1.73;;
815;SDS011;25928;51.062;13.752;2022-09-09T02:21:57;2.10;;;1.60;;
815;SDS011;25928;51.062;13.752;2022-09-09T02:24:25;1.87;;;1.63;;
815;SDS011;25928;51.062;13.752;2022-09-09T02:26:52;3.80;;;1.97;;
815;SDS011;25928;51.062;13.752;2022-09-09T02:29:25;1.57;;;1.47;;
815;SDS011;25928;51.062;13.752;2022-09-09T02:31:56;2.50;;;1.67;;
815;SDS011;25928;51.062;13.752;2022-09-09T02:34:25;3.67;;;1.80;;
815;SDS011;25928;51.062;13.752;2022-09-09T02:36:53;2.23;;;1.67;;
815;SDS011;25928;51.062;13.752;2022-09-09T02:39:22;1.70;;;1.60;;
815;SDS011;25928;51.062;13.752;2022-09-09T02:41:47;2.93;;;1.60;;
815;SDS011;25928;51.062;13.752;2022-09-09T02:44:14;1.70;;;1.60;;
815;SDS011;25928;51.062;13.752;2022-09-09T02:49:28;4.03;;;2.00;;
815;SDS011;25928;51.062;13.752;2022-09-09T02:52:15;3.00;;;1.97;;
815;SDS011;25928;51.062;13.752;2022-09-09T02:54:44;4.97;;;1.97;;
815;SDS011;25928;51.062;13.752;2022-09-09T02:57:12;2.43;;;1.60;;
815;SDS011;25928;51.062;13.752;2022-09-09T02:59:43;1.90;;;1.80;;
815;SDS011;25928;51.062;13.752;2022-09-09T03:02:09;2.53;;;1.70;;
815;SDS011;25928;51.062;13.752;2022-09-09T03:04:36;2.00;;;1.80;;
815;SDS011;25928;51.062;13.752;2022-09-09T03:07:05;2.00;;;1.43;;
815;SDS011;25928;51.062;13.752;2022-09-09T03:09:31;1.80;;;1.70;;
815;SDS011;25928;51.062;13.752;2022-09-09T03:11:59;5.30;;;1.53;;
815;SDS011;25928;51.062;13.752;2022-09-09T03:14:25;3.50;;;2.03;;
815;SDS011;25928;51.062;13.752;2022-09-09T03:16:51;3.90;;;2.17;;
815;SDS011;25928;51.062;13.752;2022-09-09T03:19:17;2.90;;;1.93;;
815;SDS011;25928;51.062;13.752;2022-09-09T03:21:44;2.90;;;1.87;;
815;SDS011;25928;51.062;13.752;2022-09-09T03:24:12;2.53;;;2.13;;
815;SDS011;25928;51.062;13.752;2022-09-09T03:26:38;2.27;;;1.97;;
815;SDS011;25928;51.062;13.752;2022-09-09T03:29:05;2.30;;;1.87;;
815;SDS011;25928;51.062;13.752;2022-09-09T03:31:34;2.87;;;2.40;;
815;SDS011;25928;51.062;13.752;2022-09-09T03:34:01;2.07;;;1.73;;
815;SDS011;25928;51.062;13.752;2022-09-09T03:36:27;1.87;;;1.77;;
815;SDS011;25928;51.062;13.752;2022-09-09T03:38:53;2.00;;;1.80;;
815;SDS011;25928;51.062;13.752;2022-09-09T03:41:20;4.43;;;2.30;;
815;SDS011;25928;51.062;13.752;2022-09-09T03:43:51;3.47;;;2.10;;
815;SDS011;25928;51.062;13.752;2022-09-09T03:46:18;2.23;;;2.00;;
815;SDS011;25928;51.062;13.752;2022-09-09T03:48:45;3.20;;;1.90;;
815;SDS011;25928;51.062;13.752;2022-09-09T03:51:11;1.93;;;1.77;;
815;SDS011;25928;51.062;13.752;2022-09-09T03:53:37;4.00;;;2.30;;
815;SDS011;25928;51.062;13.752;2022-09-09T03:56:09;3.00;;;2.03;;
815;SDS011;25928;51.062;13.752;2022-09-09T03:58:36;2.20;;;2.00;;
815;SDS011;25928;51.062;13.752;2022-09-09T04:01:03;4.97;;;2.33;;
815;SDS011;25928;51.062;13.752;2022-09-09T04:03:35;6.10;;;2.37;;
815;SDS011;25928;51.062;13.752;2022-09-09T04:06:02;4.93;;;2.30;;
815;SDS011;25928;51.062;13.752;2022-09-09T04:08:32;3.40;;;2.20;;
815;SDS011;25928;51.062;13.752;2022-09-09T04:10:58;2.80;;;2.37;;
815;SDS011;25928;51.062;13.752;2022-09-09T04:13:25;3.00;;;2.30;;
815;SDS011;25928;51.062;13.752;2022-09-09T04:15:51;4.53;;;2.37;;
815;SDS011;25928;51.062;13.752;2022-09-09T04:18:22;3.37;;;3.07;;
815;SDS011;25928;51.062;13.752;2022-09-09T04:20:48;5.20;;;2.50;;
815;SDS011;25928;51.062;13.752;2022-09-09T04:23:15;3.03;;;2.07;;
815;SDS011;25928;51.062;13.752;2022-09-09T04:25:44;2.30;;;2.17;;
815;SDS011;25928;51.062;13.752;2022-09-09T04:28:11;3.70;;;2.27;;
815;SDS011;25928;51.062;13.752;2022-09-09T04:30:38;4.13;;;2.30;;
815;SDS011;25928;51.062;13.752;2022-09-09T04:33:05;2.40;;;2.20;;
815;SDS011;25928;51.062;13.752;2022-09-09T04:35:31;3.00;;;2.77;;
815;SDS011;25928;51.062;13.752;2022-09-09T04:37:57;3.20;;;2.57;;
815;SDS011;25928;51.062;13.752;2022-09-09T04:40:23;2.47;;;2.27;;
815;SDS011;25928;51.062;13.752;2022-09-09T04:42:50;3.10;;;2.80;;
815;SDS011;25928;51.062;13.752;2022-09-09T04:45:16;2.87;;;2.57;;
815;SDS011;25928;51.062;13.752;2022-09-09T04:47:41;4.20;;;2.67;;
815;SDS011;25928;51.062;13.752;2022-09-09T04:50:07;3.13;;;2.60;;
815;SDS011;25928;51.062;13.752;2022-09-09T04:52:34;3.00;;;2.70;;
815;SDS011;25928;51.062;13.752;2022-09-09T04:55:00;3.20;;;2.90;;
815;SDS011;25928;51.062;13.752;2022-09-09T04:57:26;2.70;;;2.50;;
815;SDS011;25928;51.062;13.752;2022-09-09T04:59:52;2.97;;;2.60;;
815;SDS011;25928;51.062;13.752;2022-09-09T05:02:17;3.60;;;2.90;;
815;SDS011;25928;51.062;13.752;2022-09-09T05:04:43;5.50;;;2.97;;
815;SDS011;25928;51.062;13.752;2022-09-09T05:07:08;2.77;;;2.57;;
815;SDS011;25928;51.062;13.752;2022-09-09T05:09:35;3.07;;;2.87;;
815;SDS011;25928;51.062;13.752;2022-09-09T05:12:00;3.30;;;2.73;;
815;SDS011;25928;51.062;13.752;2022-09-09T05:14:27;3.70;;;3.07;;
815;SDS011;25928;51.062;13.752;2022-09-09T05:16:54;3.23;;;2.50;;
815;SDS011;25928;51.062;13.752;2022-09-09T05:19:21;3.33;;;2.40;;
815;SDS011;25928;51.062;13.752;2022-09-09T05:21:46;2.70;;;2.40;;
815;SDS011;25928;51.062;13.752;2022-09-09T05:24:12;3.83;;;2.80;;
815;SDS011;25928;51.062;13.752;2022-09-09T05:26:37;2.87;;;2.67;;
815;SDS011;25928;51.062;13.752;2022-09-09T05:29:03;5.70;;;2.90;;
815;SDS011;25928;51.062;13.752;2022-09-09T05:31:29;5.80;;;2.73;;
815;SDS011;25928;51.062;13.752;2022-09-09T05:33:55;3.63;;;2.63;;
815;SDS011;25928;51.062;13.752;2022-09-09T05:36:21;5.67;;;3.07;;
815;SDS011;25928;51.062;13.752;2022-09-09T05:38:48;7.97;;;2.97;;
815;SDS011;25928;51.062;13.752;2022-09-09T05:41:14;3.97;;;2.23;;
815;SDS011;25928;51.062;13.752;2022-09-09T05:43:41;4.70;;;2.53;;
815;SDS011;25928;51.062;13.752;2022-09-09T05:46:13;3.37;;;2.70;;
815;SDS011;25928;51.062;13.752;2022-09-09T05:48:42;4.87;;;2.73;;
815;SDS011;25928;51.062;13.752;2022-09-09T05:51:12;3.63;;;2.60;;
815;SDS011;25928;51.062;13.752;2022-09-09T05:53:42;3.43;;;2.40;;
815;SDS011;25928;51.062;13.752;2022-09-09T05:56:09;4.43;;;3.10;;
815;SDS011;25928;51.062;13.752;2022-09-09T05:58:37;4.10;;;2.90;;
815;SDS011;25928;51.062;13.752;2022-09-09T06:01:13;5.07;;;2.33;;
815;SDS011;25928;51.062;13.752;2022-09-09T06:03:41;1.97;;;1.83;;
815;SDS011;25928;51.062;13.752;2022-09-09T06:06:09;2.50;;;2.00;;
815;SDS011;25928;51.062;13.752;2022-09-09T06:08:37;3.47;;;2.47;;
815;SDS011;25928;51.062;13.752;2022-09-09T06:13:56;7.47;;;2.63;;
815;SDS011;25928;51.062;13.752;2022-09-09T06:16:22;4.20;;;2.20;;
815;SDS011;25928;51.062;13.752;2022-09-09T06:18:49;7.57;;;2.27;;
815;SDS011;25928;51.062;13.752;2022-09-09T06:21:17;2.50;;;2.10;;
815;SDS011;25928;51.062;13.752;2022-09-09T06:23:44;4.47;;;2.67;;
815;SDS011;25928;51.062;13.752;2022-09-09T06:26:12;3.27;;;2.40;;
815;SDS011;25928;51.062;13.752;2022-09-09T06:28:40;4.30;;;2.50;;
815;SDS011;25928;51.062;13.752;2022-09-09T06:31:09;4.33;;;2.43;;
815;SDS011;25928;51.062;13.752;2022-09-09T06:33:37;5.57;;;2.17;;
815;SDS011;25928;51.062;13.752;2022-09-09T06:36:12;3.93;;;2.83;;
815;SDS011;25928;51.062;13.752;2022-09-09T06:38:40;4.10;;;2.87;;
815;SDS011;25928;51.062;13.752;2022-09-09T06:41:09;4.13;;;2.27;;
815;SDS011;25928;51.062;13.752;2022-09-09T06:43:36;3.53;;;2.53;;
815;SDS011;25928;51.062;13.752;2022-09-09T06:46:12;3.03;;;2.30;;
815;SDS011;25928;51.062;13.752;2022-09-09T06:48:40;3.03;;;2.40;;
815;SDS011;25928;51.062;13.752;2022-09-09T06:51:18;5.33;;;2.27;;
815;SDS011;25928;51.062;13.752;2022-09-09T06:53:46;2.77;;;2.33;;
815;SDS011;25928;51.062;13.752;2022-09-09T06:56:19;3.80;;;2.33;;
815;SDS011;25928;51.062;13.752;2022-09-09T06:58:48;4.70;;;2.73;;
815;SDS011;25928;51.062;13.752;2022-09-09T07:01:18;3.90;;;2.70;;
815;SDS011;25928;51.062;13.752;2022-09-09T07:03:47;6.93;;;2.43;;
815;SDS011;25928;51.062;13.752;2022-09-09T07:06:15;5.90;;;2.43;;
815;SDS011;25928;51.062;13.752;2022-09-09T07:08:59;4.13;;;2.40;;
815;SDS011;25928;51.062;13.752;2022-09-09T07:11:27;3.20;;;2.50;;
815;SDS011;25928;51.062;13.752;2022-09-09T07:13:54;5.37;;;2.60;;
815;SDS011;25928;51.062;13.752;2022-09-09T07:16:20;5.50;;;2.60;;
815;SDS011;25928;51.062;13.752;2022-09-09T07:18:50;2.77;;;2.57;;
815;SDS011;25928;51.062;13.752;2022-09-09T07:21:16;8.40;;;3.13;;
815;SDS011;25928;51.062;13.752;2022-09-09T07:23:43;6.50;;;2.47;;
815;SDS011;25928;51.062;13.752;2022-09-09T07:26:12;3.30;;;2.30;;
815;SDS011;25928;51.062;13.752;2022-09-09T07:28:40;3.47;;;2.07;;
815;SDS011;25928;51.062;13.752;2022-09-09T07:31:14;6.23;;;2.20;;
815;SDS011;25928;51.062;13.752;2022-09-09T07:33:41;3.63;;;1.93;;
815;SDS011;25928;51.062;13.752;2022-09-09T07:36:26;6.60;;;2.20;;
815;SDS011;25928;51.062;13.752;2022-09-09T07:38:57;2.80;;;1.90;;
815;SDS011;25928;51.062;13.752;2022-09-09T07:41:37;4.60;;;2.70;;
815;SDS011;25928;51.062;13.752;2022-09-09T07:44:20;6.80;;;1.97;;
815;SDS011;25928;51.062;13.752;2022-09-09T07:46:47;3.53;;;2.03;;
815;SDS011;25928;51.062;13.752;2022-09-09T07:49:13;2.80;;;2.43;;
815;SDS011;25928;51.062;13.752;2022-09-09T07:51:40;2.00;;;1.80;;
815;SDS011;25928;51.062;13.752;2022-09-09T07:54:09;4.93;;;2.30;;
815;SDS011;25928;51.062;13.752;2022-09-09T07:56:36;3.20;;;2.20;;
815;SDS011;25928;51.062;13.752;2022-09-09T07:59:03;2.30;;;1.50;;
815;SDS011;25928;51.062;13.752;2022-09-09T08:01:32;3.40;;;1.87;;
815;SDS011;25928;51.062;13.752;2022-09-09T08:04:06;3.47;;;2.00;;
815;SDS011;25928;51.062;13.752;2022-09-09T08:06:37;3.33;;;1.60;;
815;SDS011;25928;51.062;13.752;2022-09-09T08:09:05;2.93;;;1.90;;
815;SDS011;25928;51.062;13.752;2022-09-09T08:11:31;6.03;;;1.90;;
815;SDS011;25928;51.062;13.752;2022-09-09T08:13:58;4.87;;;2.10;;
815;SDS011;25928;51.062;13.752;2022-09-09T08:16:31;3.43;;;1.90;;
815;SDS011;25928;51.062;13.752;2022-09-09T08:18:58;1.93;;;1.77;;
815;SDS011;25928;51.062;13.752;2022-09-09T08:21:25;1.80;;;1.47;;
815;SDS011;25928;51.062;13.752;2022-09-09T08:23:53;2.10;;;1.90;;
815;SDS011;25928;51.062;13.752;2022-09-09T08:26:20;2.67;;;1.67;;
815;SDS011;25928;51.062;13.752;2022-09-09T08:28:51;3.00;;;1.77;;
815;SDS011;25928;51.062;13.752;2022-09-09T08:31:19;3.40;;;1.90;;
815;SDS011;25928;51.062;13.752;2022-09-09T08:33:46;2.50;;;2.10;;
815;SDS011;25928;51.062;13.752;2022-09-09T08:36:14;3.80;;;2.07;;
815;SDS011;25928;51.062;13.752;2022-09-09T08:38:46;3.50;;;2.30;;
815;SDS011;25928;51.062;13.752;2022-09-09T08:47:11;5.23;;;2.10;;
815;SDS011;25928;51.062;13.752;2022-09-09T08:49:53;5.50;;;2.50;;
815;SDS011;25928;51.062;13.752;2022-09-09T08:58:12;7.30;;;2.70;;
815;SDS011;25928;51.062;13.752;2022-09-09T09:00:44;3.40;;;1.97;;
815;SDS011;25928;51.062;13.752;2022-09-09T09:03:24;5.37;;;2.03;;
815;SDS011;25928;51.062;13.752;2022-09-09T09:11:21;4.07;;;1.70;;
815;SDS011;25928;51.062;13.752;2022-09-09T09:13:52;6.60;;;2.30;;
815;SDS011;25928;51.062;13.752;2022-09-09T09:16:31;4.17;;;2.10;;
815;SDS011;25928;51.062;13.752;2022-09-09T09:19:03;7.27;;;2.20;;
815;SDS011;25928;51.062;13.752;2022-09-09T09:24:19;4.37;;;2.60;;
815;SDS011;25928;51.062;13.752;2022-09-09T09:26:47;5.77;;;2.07;;
815;SDS011;25928;51.062;13.752;2022-09-09T09:29:14;4.20;;;2.30;;
815;SDS011;25928;51.062;13.752;2022-09-09T09:31:45;5.80;;;2.40;;
815;SDS011;25928;51.062;13.752;2022-09-09T09:34:16;4.87;;;2.20;;
815;SDS011;25928;51.062;13.752;2022-09-09T09:36:46;7.13;;;2.10;;
815;SDS011;25928;51.062;13.752;2022-09-09T09:39:35;2.60;;;1.50;;
815;SDS011;25928;51.062;13.752;2022-09-09T09:42:14;6.43;;;2.20;;
815;SDS011;25928;51.062;13.752;2022-09-09T09:44:42;3.23;;;2.57;;
815;SDS011;25928;51.062;13.752;2022-09-09T09:49:39;2.10;;;1.50;;
815;SDS011;25928;51.062;13.752;2022-09-09T09:52:25;3.00;;;1.40;;
815;SDS011;25928;51.062;13.752;2022-09-09T09:54:53;4.93;;;1.63;;
815;SDS011;25928;51.062;13.752;2022-09-09T09:57:28;4.20;;;1.10;;
815;SDS011;25928;51.062;13.752;2022-09-09T10:00:15;4.90;;;1.40;;
815;SDS011;25928;51.062;13.752;2022-09-09T10:02:43;6.03;;;1.20;;
815;SDS011;25928;51.062;13.752;2022-09-09T10:05:17;3.17;;;1.50;;
815;SDS011;25928;51.062;13.752;2022-09-09T10:07:43;3.00;;;1.30;;
815;SDS011;25928;51.062;13.752;2022-09-09T10:10:19;2.70;;;1.30;;
815;SDS011;25928;51.062;13.752;2022-09-09T10:12:59;6.50;;;1.67;;
815;SDS011;25928;51.062;13.752;2022-09-09T10:15:41;2.53;;;1.60;;
815;SDS011;25928;51.062;13.752;2022-09-09T10:18:15;3.63;;;1.73;;
815;SDS011;25928;51.062;13.752;2022-09-09T10:29:12;5.17;;;1.43;;
815;SDS011;25928;51.062;13.752;2022-09-09T10:34:55;3.40;;;1.57;;
815;SDS011;25928;51.062;13.752;2022-09-09T10:40:34;2.73;;;1.47;;
815;SDS011;25928;51.062;13.752;2022-09-09T11:00:05;1.60;;;0.93;;
815;SDS011;25928;51.062;13.752;2022-09-09T11:02:39;2.50;;;1.43;;
815;SDS011;25928;51.062;13.752;2022-09-09T11:05:09;3.20;;;1.20;;
815;SDS011;25928;51.062;13.752;2022-09-09T11:08:04;3.80;;;1.50;;
815;SDS011;25928;51.062;13.752;2022-09-09T11:10:42;3.30;;;1.63;;
815;SDS011;25928;51.062;13.752;2022-09-09T11:13:19;3.33;;;1.43;;
815;SDS011;25928;51.062;13.752;2022-09-09T11:16:24;1.60;;;1.13;;
815;SDS011;25928;51.062;13.752;2022-09-09T11:19:30;2.50;;;1.60;;
815;SDS011;25928;51.062;13.752;2022-09-09T11:24:45;2.80;;;1.27;;
815;SDS011;25928;51.062;13.752;2022-09-09T11:27:37;4.13;;;1.50;;
815;SDS011;25928;51.062;13.752;2022-09-09T11:30:26;3.43;;;1.20;;
815;SDS011;25928;51.062;13.752;2022-09-09T11:39:05;3.80;;;2.00;;
815;SDS011;25928;51.062;13.752;2022-09-09T11:41:35;1.97;;;1.10;;
815;SDS011;25928;51.062;13.752;2022-09-09T11:44:09;2.83;;;1.27;;
815;SDS011;25928;51.062;13.752;2022-09-09T11:46:43;4.70;;;1.77;;
815;SDS011;25928;51.062;13.752;2022-09-09T11:49:26;4.17;;;2.10;;
815;SDS011;25928;51.062;13.752;2022-09-09T11:51:53;2.20;;;1.20;;
815;SDS011;25928;51.062;13.752;2022-09-09T11:54:32;2.20;;;1.70;;
815;SDS011;25928;51.062;13.752;2022-09-09T11:57:42;3.03;;;2.20;;
815;SDS011;25928;51.062;13.752;2022-09-09T12:00:02;2.90;;;1.47;;
815;SDS011;25928;51.062;13.752;2022-09-09T12:02:28;2.60;;;1.27;;
815;SDS011;25928;51.062;13.752;2022-09-09T12:10:26;4.03;;;1.50;;
815;SDS011;25928;51.062;13.752;2022-09-09T12:15:53;2.70;;;1.50;;
815;SDS011;25928;51.062;13.752;2022-09-09T12:18:22;3.83;;;1.70;;
815;SDS011;25928;51.062;13.752;2022-09-09T12:20:59;2.50;;;1.50;;
815;SDS011;25928;51.062;13.752;2022-09-09T12:23:36;4.23;;;2.10;;
815;SDS011;25928;51.062;13.752;2022-09-09T12:26:27;4.50;;;1.53;;
815;SDS011;25928;51.062;13.752;2022-09-09T12:39:53;3.87;;;1.57;;
815;SDS011;25928;51.062;13.752;2022-09-09T12:42:22;1.80;;;1.70;;
815;SDS011;25928;51.062;13.752;2022-09-09T12:47:21;1.90;;;1.70;;
815;SDS011;25928;51.062;13.752;2022-09-09T12:49:55;4.00;;;2.03;;
815;SDS011;25928;51.062;13.752;2022-09-09T12:52:26;2.60;;;1.80;;
815;SDS011;25928;51.062;13.752;2022-09-09T12:54:58;1.63;;;1.53;;
815;SDS011;25928;51.062;13.752;2022-09-09T12:57:27;2.10;;;1.77;;
815;SDS011;25928;51.062;13.752;2022-09-09T13:00:06;2.27;;;1.50;;
815;SDS011;25928;51.062;13.752;2022-09-09T13:02:55;3.73;;;1.53;;
815;SDS011;25928;51.062;13.752;2022-09-09T13:05:27;7.27;;;1.73;;
815;SDS011;25928;51.062;13.752;2022-09-09T13:08:04;3.93;;;2.07;;
815;SDS011;25928;51.062;13.752;2022-09-09T13:13:53;3.90;;;3.00;;
815;SDS011;25928;51.062;13.752;2022-09-09T13:16:41;4.23;;;2.77;;
815;SDS011;25928;51.062;13.752;2022-09-09T13:19:07;6.00;;;2.17;;
815;SDS011;25928;51.062;13.752;2022-09-09T13:21:35;4.47;;;1.70;;
815;SDS011;25928;51.062;13.752;2022-09-09T13:24:05;4.13;;;1.77;;
815;SDS011;25928;51.062;13.752;2022-09-09T13:26:53;2.37;;;1.73;;
815;SDS011;25928;51.062;13.752;2022-09-09T13:29:23;2.27;;;1.47;;
815;SDS011;25928;51.062;13.752;2022-09-09T13:31:49;1.73;;;1.10;;
815;SDS011;25928;51.062;13.752;2022-09-09T13:34:30;3.20;;;1.77;;
815;SDS011;25928;51.062;13.752;2022-09-09T13:37:01;2.00;;;1.63;;
815;SDS011;25928;51.062;13.752;2022-09-09T13:39:28;4.43;;;1.80;;
815;SDS011;25928;51.062;13.752;2022-09-09T13:41:54;2.40;;;1.27;;
815;SDS011;25928;51.062;13.752;2022-09-09T13:44:24;4.33;;;1.50;;
815;SDS011;25928;51.062;13.752;2022-09-09T13:49:46;2.27;;;1.13;;
815;SDS011;25928;51.062;13.752;2022-09-09T13:52:15;5.00;;;1.90;;
815;SDS011;25928;51.062;13.752;2022-09-09T13:54:46;2.37;;;1.40;;
815;SDS011;25928;51.062;13.752;2022-09-09T13:57:18;2.93;;;1.20;;
815;SDS011;25928;51.062;13.752;2022-09-09T13:59:49;1.80;;;1.60;;
815;SDS011;25928;51.062;13.752;2022-09-09T14:02:15;2.77;;;1.30;;
815;SDS011;25928;51.062;13.752;2022-09-09T14:04:41;2.33;;;1.37;;
815;SDS011;25928;51.062;13.752;2022-09-09T14:07:09;2.10;;;1.30;;
815;SDS011;25928;51.062;13.752;2022-09-09T14:09:38;3.87;;;1.90;;
815;SDS011;25928;51.062;13.752;2022-09-09T14:12:04;3.00;;;1.53;;
815;SDS011;25928;51.062;13.752;2022-09-09T14:14:33;1.90;;;1.37;;
815;SDS011;25928;51.062;13.752;2022-09-09T14:16:58;1.53;;;1.30;;
815;SDS011;25928;51.062;13.752;2022-09-09T14:19:24;2.53;;;1.20;;
815;SDS011;25928;51.062;13.752;2022-09-09T14:21:49;2.50;;;1.57;;
815;SDS011;25928;51.062;13.752;2022-09-09T14:24:15;3.47;;;1.37;;
815;SDS011;25928;51.062;13.752;2022-09-09T14:26:41;2.20;;;1.30;;
815;SDS011;25928;51.062;13.752;2022-09-09T14:29:06;2.70;;;1.60;;
815;SDS011;25928;51.062;13.752;2022-09-09T14:31:32;3.87;;;1.50;;
815;SDS011;25928;51.062;13.752;2022-09-09T14:33:58;6.40;;;1.80;;
815;SDS011;25928;51.062;13.752;2022-09-09T14:36:24;4.03;;;1.90;;
815;SDS011;25928;51.062;13.752;2022-09-09T14:38:49;4.90;;;1.23;;
815;SDS011;25928;51.062;13.752;2022-09-09T14:41:17;3.30;;;1.60;;
815;SDS011;25928;51.062;13.752;2022-09-09T14:43:43;4.60;;;1.50;;
815;SDS011;25928;51.062;13.752;2022-09-09T14:46:16;4.10;;;1.80;;
815;SDS011;25928;51.062;13.752;2022-09-09T14:48:42;2.53;;;1.37;;
815;SDS011;25928;51.062;13.752;2022-09-09T14:53:44;5.47;;;1.63;;
815;SDS011;25928;51.062;13.752;2022-09-09T14:56:17;1.97;;;1.60;;
815;SDS011;25928;51.062;13.752;2022-09-09T14:58:45;3.07;;;1.30;;
815;SDS011;25928;51.062;13.752;2022-09-09T15:01:15;4.47;;;1.70;;
815;SDS011;25928;51.062;13.752;2022-09-09T15:03:44;3.00;;;1.37;;
815;SDS011;25928;51.062;13.752;2022-09-09T15:06:18;4.83;;;2.00;;
815;SDS011;25928;51.062;13.752;2022-09-09T15:08:45;3.97;;;1.60;;
815;SDS011;25928;51.062;13.752;2022-09-09T15:11:13;4.33;;;1.60;;
815;SDS011;25928;51.062;13.752;2022-09-09T15:13:40;3.43;;;1.20;;
815;SDS011;25928;51.062;13.752;2022-09-09T15:18:34;2.13;;;1.40;;
815;SDS011;25928;51.062;13.752;2022-09-09T15:21:01;4.67;;;1.20;;
815;SDS011;25928;51.062;13.752;2022-09-09T15:23:36;4.97;;;1.53;;
815;SDS011;25928;51.062;13.752;2022-09-09T15:26:02;2.67;;;1.40;;
815;SDS011;25928;51.062;13.752;2022-09-09T15:28:35;4.40;;;2.80;;
815;SDS011;25928;51.062;13.752;2022-09-09T15:31:24;2.83;;;2.10;;
815;SDS011;25928;51.062;13.752;2022-09-09T15:34:10;2.93;;;1.50;;
815;SDS011;25928;51.062;13.752;2022-09-09T15:36:35;2.57;;;1.53;;
815;SDS011;25928;51.062;13.752;2022-09-09T15:39:04;3.23;;;1.33;;
815;SDS011;25928;51.062;13.752;2022-09-09T15:41:32;4.80;;;1.50;;
815;SDS011;25928;51.062;13.752;2022-09-09T15:43:59;3.20;;;1.63;;
815;SDS011;25928;51.062;13.752;2022-09-09T15:49:19;3.40;;;1.50;;
815;SDS011;25928;51.062;13.752;2022-09-09T15:51:57;3.33;;;1.73;;
815;SDS011;25928;51.062;13.752;2022-09-09T15:54:27;2.33;;;1.47;;
815;SDS011;25928;51.062;13.752;2022-09-09T15:56:57;3.67;;;1.90;;
815;SDS011;25928;51.062;13.752;2022-09-09T15:59:25;4.90;;;2.30;;
815;SDS011;25928;51.062;13.752;2022-09-09T16:01:55;2.40;;;1.80;;
815;SDS011;25928;51.062;13.752;2022-09-09T16:04:21;2.60;;;2.00;;
815;SDS011;25928;51.062;13.752;2022-09-09T16:06:58;3.30;;;1.67;;
815;SDS011;25928;51.062;13.752;2022-09-09T16:09:26;3.80;;;1.60;;
815;SDS011;25928;51.062;13.752;2022-09-09T16:11:52;2.57;;;1.70;;
815;SDS011;25928;51.062;13.752;2022-09-09T16:14:21;3.00;;;2.00;;
815;SDS011;25928;51.062;13.752;2022-09-09T16:16:46;1.67;;;1.50;;
815;SDS011;25928;51.062;13.752;2022-09-09T16:19:13;2.60;;;1.90;;
815;SDS011;25928;51.062;13.752;2022-09-09T16:21:40;3.00;;;1.40;;
815;SDS011;25928;51.062;13.752;2022-09-09T16:24:15;6.23;;;2.00;;
815;SDS011;25928;51.062;13.752;2022-09-09T16:26:43;3.00;;;2.07;;
815;SDS011;25928;51.062;13.752;2022-09-09T16:29:11;2.33;;;1.37;;
815;SDS011;25928;51.062;13.752;2022-09-09T16:31:40;3.27;;;2.10;;
815;SDS011;25928;51.062;13.752;2022-09-09T16:34:07;2.50;;;1.60;;
815;SDS011;25928;51.062;13.752;2022-09-09T16:36:34;4.90;;;2.30;;
815;SDS011;25928;51.062;13.752;2022-09-09T16:39:02;5.00;;;2.03;;
815;SDS011;25928;51.062;13.752;2022-09-09T16:41:30;2.80;;;1.87;;
815;SDS011;25928;51.062;13.752;2022-09-09T16:43:57;3.90;;;1.70;;
815;SDS011;25928;51.062;13.752;2022-09-09T16:46:24;2.23;;;1.27;;
815;SDS011;25928;51.062;13.752;2022-09-09T16:48:53;5.23;;;1.53;;
815;SDS011;25928;51.062;13.752;2022-09-09T16:51:22;4.30;;;1.57;;
815;SDS011;25928;51.062;13.752;2022-09-09T16:53:52;2.77;;;1.67;;
815;SDS011;25928;51.062;13.752;2022-09-09T16:56:20;1.63;;;1.20;;
815;SDS011;25928;51.062;13.752;2022-09-09T16:58:51;3.97;;;1.90;;
815;SDS011;25928;51.062;13.752;2022-09-09T17:01:25;2.27;;;1.77;;
815;SDS011;25928;51.062;13.752;2022-09-09T17:03:57;4.27;;;1.73;;
815;SDS011;25928;51.062;13.752;2022-09-09T17:06:25;2.20;;;1.33;;
815;SDS011;25928;51.062;13.752;2022-09-09T17:08:55;4.77;;;1.83;;
815;SDS011;25928;51.062;13.752;2022-09-09T17:11:22;3.57;;;1.73;;
815;SDS011;25928;51.062;13.752;2022-09-09T17:13:48;4.47;;;2.27;;
815;SDS011;25928;51.062;13.752;2022-09-09T17:16:15;2.60;;;2.00;;
815;SDS011;25928;51.062;13.752;2022-09-09T17:18:41;3.27;;;2.10;;
815;SDS011;25928;51.062;13.752;2022-09-09T17:21:14;5.40;;;2.53;;
815;SDS011;25928;51.062;13.752;2022-09-09T17:23:41;4.33;;;2.30;;
815;SDS011;25928;51.062;13.752;2022-09-09T17:26:08;2.97;;;1.90;;
815;SDS011;25928;51.062;13.752;2022-09-09T17:28:36;6.57;;;1.90;;
815;SDS011;25928;51.062;13.752;2022-09-09T17:31:04;6.70;;;2.60;;
815;SDS011;25928;51.062;13.752;2022-09-09T17:33:40;3.67;;;2.40;;
815;SDS011;25928;51.062;13.752;2022-09-09T17:38:36;5.10;;;1.90;;
815;SDS011;25928;51.062;13.752;2022-09-09T17:41:13;2.33;;;1.90;;
815;SDS011;25928;51.062;13.752;2022-09-09T17:43:50;3.00;;;2.23;;
815;SDS011;25928;51.062;13.752;2022-09-09T17:46:17;3.50;;;1.70;;
815;SDS011;25928;51.062;13.752;2022-09-09T17:48:57;3.67;;;2.90;;
815;SDS011;25928;51.062;13.752;2022-09-09T17:51:24;3.40;;;2.40;;
815;SDS011;25928;51.062;13.752;2022-09-09T17:53:53;9.87;;;4.30;;